Airfield :
LOGIN :

Register | Disclaimer

   EN    FR    IT 

 










Legend :    VFR   Marginal VFR   IFR   Intensive IFR   Very Intensive IFR
Visi :
Ceiling :
>= 8 km
>= 3000ft
5 to 8 km
1000 to 3000 ft
1500m to 5 km
500 to 1000 ft
800 to 1500m
200 to 500 ft
< 800m
< 200 ft
Symbols :   Thunderstorms  Fog  Heavy snow  Heavy precipitations  Wind > 20 kt
SIGMETs :     Misc.  Thunderstorms  Icing  Turbulence  Mountain Waves  Volcanic Ashes






- Airport Elevation : 101 ft
- IATA code : GLO


EGBJ - Gloucestershire

CURRENT METAR :
  • 221520Z 04002KT 9000 -RA FEW008 BKN015 OVC021 07/07 Q0992

EXPIRED METARs :
  • 221450Z 04004KT 9000 -RA FEW008 BKN016 OVC020 07/07 Q0992
  • 221420Z 02003KT 9999 -RA FEW007 BKN017 07/07 Q0992
  • 221350Z 00000KT 9000 -RA FEW007 BKN013 OVC016 07/06 Q0992
  • 221320Z 00000KT 9000 -SHRA FEW008 BKN016 07/06 Q0993
  • 221250Z 14003KT 9000 -SHRA FEW008 BKN016 07/06 Q0993

TAF TAF EGBJ
Valid from the 22 at 15:00 until the 22 at 20:00 UTC


221359Z 2215/2220 12009KT 9999 FEW012 BKN030
TEMPO 2215/2219 7000 RA SHRA
PROB30
TEMPO 2215/2218 4000 +RA BKN012
TEMPO 2218/2220 BKN012



MET'MAP, your aeronautical weather chart ! - Copyright ORBIFLY December 2007 - Disclaimer

ORBIFLY MET'MAP TEAM :

Programming & Development : Alexandra Zaïnal
Concept & Development : Baudouin d'Aumeries
Co-Development & Prog : Marc-Olivier Méhu
Technical & hardware support : Manuel Goepfert

Contact : metmap@orbifly.com




SOURCES & CREDITS :

   NOAA